sensor_id;sensor_type;location;lat;lon;timestamp;temperature;humidity
20911;DHT22;10615;42.702;23.314;2023-07-20T00:00:51;24.30;65.10
20911;DHT22;10615;42.702;23.314;2023-07-20T00:01:53;24.30;65.20
20911;DHT22;10615;42.702;23.314;2023-07-20T00:03:13;24.30;65.00
20911;DHT22;10615;42.702;23.314;2023-07-20T00:04:17;24.40;64.80
20911;DHT22;10615;42.702;23.314;2023-07-20T00:05:17;24.40;64.20
20911;DHT22;10615;42.702;23.314;2023-07-20T00:06:18;24.30;63.90
20911;DHT22;10615;42.702;23.314;2023-07-20T00:07:19;24.30;63.80
20911;DHT22;10615;42.702;23.314;2023-07-20T00:08:20;24.20;63.70
20911;DHT22;10615;42.702;23.314;2023-07-20T00:09:20;24.20;63.80
20911;DHT22;10615;42.702;23.314;2023-07-20T00:10:22;24.20;63.90
20911;DHT22;10615;42.702;23.314;2023-07-20T00:11:26;24.20;64.00
20911;DHT22;10615;42.702;23.314;2023-07-20T00:12:27;24.20;64.10
20911;DHT22;10615;42.702;23.314;2023-07-20T00:13:28;24.20;64.20
20911;DHT22;10615;42.702;23.314;2023-07-20T00:14:28;24.20;64.20
20911;DHT22;10615;42.702;23.314;2023-07-20T00:15:29;24.20;64.20
20911;DHT22;10615;42.702;23.314;2023-07-20T00:16:30;24.20;64.10
20911;DHT22;10615;42.702;23.314;2023-07-20T00:17:31;24.20;63.90
20911;DHT22;10615;42.702;23.314;2023-07-20T00:18:31;24.30;63.80
20911;DHT22;10615;42.702;23.314;2023-07-20T00:19:32;24.30;64.60
20911;DHT22;10615;42.702;23.314;2023-07-20T00:20:33;24.30;64.10
20911;DHT22;10615;42.702;23.314;2023-07-20T00:21:33;24.30;64.30
20911;DHT22;10615;42.702;23.314;2023-07-20T00:22:34;24.40;64.50
20911;DHT22;10615;42.702;23.314;2023-07-20T00:23:35;24.40;64.70
20911;DHT22;10615;42.702;23.314;2023-07-20T00:24:36;24.40;64.50
20911;DHT22;10615;42.702;23.314;2023-07-20T00:25:36;24.40;64.40
20911;DHT22;10615;42.702;23.314;2023-07-20T00:26:37;24.40;64.40
20911;DHT22;10615;42.702;23.314;2023-07-20T00:27:38;24.30;64.20
20911;DHT22;10615;42.702;23.314;2023-07-20T00:28:38;24.20;64.40
20911;DHT22;10615;42.702;23.314;2023-07-20T00:29:39;24.10;64.90
20911;DHT22;10615;42.702;23.314;2023-07-20T00:30:40;24.10;65.30
20911;DHT22;10615;42.702;23.314;2023-07-20T00:31:41;24.00;65.50
20911;DHT22;10615;42.702;23.314;2023-07-20T00:32:43;24.00;65.70
20911;DHT22;10615;42.702;23.314;2023-07-20T00:33:43;24.00;65.90
20911;DHT22;10615;42.702;23.314;2023-07-20T00:34:44;24.00;66.10
20911;DHT22;10615;42.702;23.314;2023-07-20T00:35:45;24.00;66.40
20911;DHT22;10615;42.702;23.314;2023-07-20T00:36:45;23.90;66.90
20911;DHT22;10615;42.702;23.314;2023-07-20T00:37:46;23.90;67.30
20911;DHT22;10615;42.702;23.314;2023-07-20T00:38:47;23.80;67.70
20911;DHT22;10615;42.702;23.314;2023-07-20T00:39:47;23.70;68.10
20911;DHT22;10615;42.702;23.314;2023-07-20T00:40:48;23.70;68.60
20911;DHT22;10615;42.702;23.314;2023-07-20T00:41:49;23.60;69.10
20911;DHT22;10615;42.702;23.314;2023-07-20T00:42:50;23.50;69.60
20911;DHT22;10615;42.702;23.314;2023-07-20T00:43:51;23.40;70.10
20911;DHT22;10615;42.702;23.314;2023-07-20T00:44:51;23.30;70.70
20911;DHT22;10615;42.702;23.314;2023-07-20T00:45:52;23.20;71.40
20911;DHT22;10615;42.702;23.314;2023-07-20T00:46:53;23.10;72.00
20911;DHT22;10615;42.702;23.314;2023-07-20T00:47:53;23.00;72.70
20911;DHT22;10615;42.702;23.314;2023-07-20T00:48:54;23.00;73.20
20911;DHT22;10615;42.702;23.314;2023-07-20T00:49:55;22.90;73.60
20911;DHT22;10615;42.702;23.314;2023-07-20T00:50:57;22.80;73.80
20911;DHT22;10615;42.702;23.314;2023-07-20T00:52:00;22.90;74.10
20911;DHT22;10615;42.702;23.314;2023-07-20T00:53:02;22.90;74.30
20911;DHT22;10615;42.702;23.314;2023-07-20T00:54:05;22.90;74.30
20911;DHT22;10615;42.702;23.314;2023-07-20T00:55:07;22.90;74.20
20911;DHT22;10615;42.702;23.314;2023-07-20T00:56:09;22.90;74.40
20911;DHT22;10615;42.702;23.314;2023-07-20T00:57:10;22.90;74.50
20911;DHT22;10615;42.702;23.314;2023-07-20T00:58:13;22.80;74.60
20911;DHT22;10615;42.702;23.314;2023-07-20T00:59:14;22.80;74.90
20911;DHT22;10615;42.702;23.314;2023-07-20T01:00:15;22.70;75.10
20911;DHT22;10615;42.702;23.314;2023-07-20T01:01:16;22.70;75.30
20911;DHT22;10615;42.702;23.314;2023-07-20T01:02:16;22.70;75.40
20911;DHT22;10615;42.702;23.314;2023-07-20T01:03:17;22.70;75.40
20911;DHT22;10615;42.702;23.314;2023-07-20T01:04:18;22.70;75.50
20911;DHT22;10615;42.702;23.314;2023-07-20T01:05:19;22.70;75.50
20911;DHT22;10615;42.702;23.314;2023-07-20T01:06:31;22.70;75.60
20911;DHT22;10615;42.702;23.314;2023-07-20T01:07:39;22.80;75.60
20911;DHT22;10615;42.702;23.314;2023-07-20T01:09:00;22.70;75.60
20911;DHT22;10615;42.702;23.314;2023-07-20T01:12:43;22.70;76.10
20911;DHT22;10615;42.702;23.314;2023-07-20T01:13:45;22.60;76.10
20911;DHT22;10615;42.702;23.314;2023-07-20T01:14:47;22.60;76.30
20911;DHT22;10615;42.702;23.314;2023-07-20T01:15:56;22.60;76.60
20911;DHT22;10615;42.702;23.314;2023-07-20T01:16:58;22.60;77.00
20911;DHT22;10615;42.702;23.314;2023-07-20T01:17:58;22.60;77.30
20911;DHT22;10615;42.702;23.314;2023-07-20T01:19:01;22.50;77.40
20911;DHT22;10615;42.702;23.314;2023-07-20T01:20:02;22.50;77.50
20911;DHT22;10615;42.702;23.314;2023-07-20T01:21:13;22.50;77.70
20911;DHT22;10615;42.702;23.314;2023-07-20T01:26:12;22.50;77.40
20911;DHT22;10615;42.702;23.314;2023-07-20T01:27:31;22.60;77.60
20911;DHT22;10615;42.702;23.314;2023-07-20T01:32:27;22.60;77.40
20911;DHT22;10615;42.702;23.314;2023-07-20T01:33:31;22.60;77.20
20911;DHT22;10615;42.702;23.314;2023-07-20T01:34:34;22.70;77.20
20911;DHT22;10615;42.702;23.314;2023-07-20T01:35:37;22.70;77.10
20911;DHT22;10615;42.702;23.314;2023-07-20T01:36:39;22.70;77.20
20911;DHT22;10615;42.702;23.314;2023-07-20T01:37:43;22.70;77.30
20911;DHT22;10615;42.702;23.314;2023-07-20T01:38:45;22.70;77.30
20911;DHT22;10615;42.702;23.314;2023-07-20T01:39:47;22.80;77.30
20911;DHT22;10615;42.702;23.314;2023-07-20T01:40:48;22.80;77.20
20911;DHT22;10615;42.702;23.314;2023-07-20T01:41:49;22.80;77.10
20911;DHT22;10615;42.702;23.314;2023-07-20T01:42:51;22.80;76.90
20911;DHT22;10615;42.702;23.314;2023-07-20T01:43:52;22.80;76.80
20911;DHT22;10615;42.702;23.314;2023-07-20T01:44:52;22.80;76.60
20911;DHT22;10615;42.702;23.314;2023-07-20T01:45:53;22.80;76.50
20911;DHT22;10615;42.702;23.314;2023-07-20T01:46:54;22.80;76.30
20911;DHT22;10615;42.702;23.314;2023-07-20T01:47:55;22.70;76.20
20911;DHT22;10615;42.702;23.314;2023-07-20T01:48:56;22.70;76.20
20911;DHT22;10615;42.702;23.314;2023-07-20T01:49:57;22.70;76.30
20911;DHT22;10615;42.702;23.314;2023-07-20T01:50:57;22.60;76.30
20911;DHT22;10615;42.702;23.314;2023-07-20T01:51:58;22.60;76.50
20911;DHT22;10615;42.702;23.314;2023-07-20T01:53:00;22.60;76.50
20911;DHT22;10615;42.702;23.314;2023-07-20T01:54:00;22.60;76.50
20911;DHT22;10615;42.702;23.314;2023-07-20T01:55:01;22.50;76.50
20911;DHT22;10615;42.702;23.314;2023-07-20T01:56:02;22.50;76.50
20911;DHT22;10615;42.702;23.314;2023-07-20T01:57:03;22.50;76.60
20911;DHT22;10615;42.702;23.314;2023-07-20T01:58:04;22.50;76.80
20911;DHT22;10615;42.702;23.314;2023-07-20T01:59:06;22.50;77.00
20911;DHT22;10615;42.702;23.314;2023-07-20T02:00:07;22.40;77.20
20911;DHT22;10615;42.702;23.314;2023-07-20T02:01:10;22.50;77.40
20911;DHT22;10615;42.702;23.314;2023-07-20T02:02:10;22.50;77.40
20911;DHT22;10615;42.702;23.314;2023-07-20T02:03:11;22.40;77.40
20911;DHT22;10615;42.702;23.314;2023-07-20T02:04:12;22.40;77.20
20911;DHT22;10615;42.702;23.314;2023-07-20T02:05:13;22.40;77.20
20911;DHT22;10615;42.702;23.314;2023-07-20T02:06:14;22.40;77.10
20911;DHT22;10615;42.702;23.314;2023-07-20T02:07:15;22.40;77.10
20911;DHT22;10615;42.702;23.314;2023-07-20T02:08:15;22.40;77.20
20911;DHT22;10615;42.702;23.314;2023-07-20T02:09:16;22.40;77.30
20911;DHT22;10615;42.702;23.314;2023-07-20T02:10:17;22.50;77.70
20911;DHT22;10615;42.702;23.314;2023-07-20T02:11:17;22.50;77.80
20911;DHT22;10615;42.702;23.314;2023-07-20T02:12:18;22.50;77.70
20911;DHT22;10615;42.702;23.314;2023-07-20T02:13:19;22.50;77.50
20911;DHT22;10615;42.702;23.314;2023-07-20T02:14:19;22.60;77.50
20911;DHT22;10615;42.702;23.314;2023-07-20T02:15:20;22.50;77.20
20911;DHT22;10615;42.702;23.314;2023-07-20T02:16:21;22.50;76.90
20911;DHT22;10615;42.702;23.314;2023-07-20T02:17:22;22.50;76.90
20911;DHT22;10615;42.702;23.314;2023-07-20T02:18:22;22.50;76.90
20911;DHT22;10615;42.702;23.314;2023-07-20T02:19:25;22.50;76.80
20911;DHT22;10615;42.702;23.314;2023-07-20T02:20:26;22.40;76.80
20911;DHT22;10615;42.702;23.314;2023-07-20T02:21:27;22.40;77.00
20911;DHT22;10615;42.702;23.314;2023-07-20T02:22:28;22.40;77.20
20911;DHT22;10615;42.702;23.314;2023-07-20T02:23:29;22.40;77.40
20911;DHT22;10615;42.702;23.314;2023-07-20T02:24:29;22.40;77.50
20911;DHT22;10615;42.702;23.314;2023-07-20T02:25:30;22.40;77.70
20911;DHT22;10615;42.702;23.314;2023-07-20T02:26:31;22.40;77.80
20911;DHT22;10615;42.702;23.314;2023-07-20T02:27:31;22.40;77.80
20911;DHT22;10615;42.702;23.314;2023-07-20T02:28:32;22.40;77.50
20911;DHT22;10615;42.702;23.314;2023-07-20T02:29:33;22.50;77.50
20911;DHT22;10615;42.702;23.314;2023-07-20T02:30:37;22.40;77.20
20911;DHT22;10615;42.702;23.314;2023-07-20T02:31:38;22.50;77.20
20911;DHT22;10615;42.702;23.314;2023-07-20T02:32:39;22.50;77.20
20911;DHT22;10615;42.702;23.314;2023-07-20T02:33:40;22.40;77.20
20911;DHT22;10615;42.702;23.314;2023-07-20T02:34:41;22.40;77.20
20911;DHT22;10615;42.702;23.314;2023-07-20T02:35:41;22.40;77.20
20911;DHT22;10615;42.702;23.314;2023-07-20T02:36:42;22.40;77.30
20911;DHT22;10615;42.702;23.314;2023-07-20T02:37:43;22.40;77.50
20911;DHT22;10615;42.702;23.314;2023-07-20T02:38:44;22.40;77.60
20911;DHT22;10615;42.702;23.314;2023-07-20T02:39:44;22.40;78.00
20911;DHT22;10615;42.702;23.314;2023-07-20T02:40:45;22.40;78.10
20911;DHT22;10615;42.702;23.314;2023-07-20T02:41:46;22.40;78.30
20911;DHT22;10615;42.702;23.314;2023-07-20T02:42:46;22.40;78.40
20911;DHT22;10615;42.702;23.314;2023-07-20T02:43:47;22.40;78.40
20911;DHT22;10615;42.702;23.314;2023-07-20T02:44:48;22.40;78.00
20911;DHT22;10615;42.702;23.314;2023-07-20T02:45:50;22.40;77.70
20911;DHT22;10615;42.702;23.314;2023-07-20T02:46:51;22.40;77.60
20911;DHT22;10615;42.702;23.314;2023-07-20T02:47:51;22.40;77.50
20911;DHT22;10615;42.702;23.314;2023-07-20T02:48:52;22.30;77.50
20911;DHT22;10615;42.702;23.314;2023-07-20T02:49:53;22.30;77.60
20911;DHT22;10615;42.702;23.314;2023-07-20T02:50:53;22.30;77.90
20911;DHT22;10615;42.702;23.314;2023-07-20T02:51:54;22.40;78.10
20911;DHT22;10615;42.702;23.314;2023-07-20T02:52:55;22.40;78.00
20911;DHT22;10615;42.702;23.314;2023-07-20T02:53:56;22.40;77.90
20911;DHT22;10615;42.702;23.314;2023-07-20T02:54:56;22.40;77.70
20911;DHT22;10615;42.702;23.314;2023-07-20T02:55:57;22.50;77.60
20911;DHT22;10615;42.702;23.314;2023-07-20T02:56:57;22.50;77.50
20911;DHT22;10615;42.702;23.314;2023-07-20T02:57:58;22.50;77.20
20911;DHT22;10615;42.702;23.314;2023-07-20T02:58:59;22.50;77.20
20911;DHT22;10615;42.702;23.314;2023-07-20T02:59:59;22.50;77.20
20911;DHT22;10615;42.702;23.314;2023-07-20T03:01:00;22.50;77.20
20911;DHT22;10615;42.702;23.314;2023-07-20T03:02:01;22.40;77.20
20911;DHT22;10615;42.702;23.314;2023-07-20T03:03:01;22.50;77.50
20911;DHT22;10615;42.702;23.314;2023-07-20T03:04:02;22.50;77.50
20911;DHT22;10615;42.702;23.314;2023-07-20T03:05:04;22.50;77.60
20911;DHT22;10615;42.702;23.314;2023-07-20T03:06:07;22.50;77.50
20911;DHT22;10615;42.702;23.314;2023-07-20T03:07:09;22.40;77.50
20911;DHT22;10615;42.702;23.314;2023-07-20T03:08:10;22.40;77.50
20911;DHT22;10615;42.702;23.314;2023-07-20T03:09:11;22.40;77.50
20911;DHT22;10615;42.702;23.314;2023-07-20T03:10:11;22.40;77.60
20911;DHT22;10615;42.702;23.314;2023-07-20T03:11:14;22.40;77.60
20911;DHT22;10615;42.702;23.314;2023-07-20T03:12:15;22.40;77.70
20911;DHT22;10615;42.702;23.314;2023-07-20T03:13:16;22.40;77.70
20911;DHT22;10615;42.702;23.314;2023-07-20T03:14:16;22.40;77.70
20911;DHT22;10615;42.702;23.314;2023-07-20T03:15:17;22.40;77.70
20911;DHT22;10615;42.702;23.314;2023-07-20T03:16:19;22.50;77.80
20911;DHT22;10615;42.702;23.314;2023-07-20T03:17:20;22.50;77.70
20911;DHT22;10615;42.702;23.314;2023-07-20T03:18:21;22.50;77.60
20911;DHT22;10615;42.702;23.314;2023-07-20T03:19:21;22.50;77.60
20911;DHT22;10615;42.702;23.314;2023-07-20T03:20:22;22.50;77.50
20911;DHT22;10615;42.702;23.314;2023-07-20T03:21:23;22.50;77.50
20911;DHT22;10615;42.702;23.314;2023-07-20T03:22:23;22.50;77.50
20911;DHT22;10615;42.702;23.314;2023-07-20T03:23:24;22.50;77.70
20911;DHT22;10615;42.702;23.314;2023-07-20T03:24:26;22.50;77.70
20911;DHT22;10615;42.702;23.314;2023-07-20T03:25:27;22.50;77.70
20911;DHT22;10615;42.702;23.314;2023-07-20T03:26:28;22.50;77.60
20911;DHT22;10615;42.702;23.314;2023-07-20T03:27:28;22.50;77.50
20911;DHT22;10615;42.702;23.314;2023-07-20T03:28:29;22.50;77.50
20911;DHT22;10615;42.702;23.314;2023-07-20T03:29:31;22.50;77.60
20911;DHT22;10615;42.702;23.314;2023-07-20T03:30:32;22.50;77.80
20911;DHT22;10615;42.702;23.314;2023-07-20T03:31:33;22.50;77.90
20911;DHT22;10615;42.702;23.314;2023-07-20T03:32:34;22.60;78.00
20911;DHT22;10615;42.702;23.314;2023-07-20T03:33:34;22.60;77.90
20911;DHT22;10615;42.702;23.314;2023-07-20T03:34:35;22.60;78.00
20911;DHT22;10615;42.702;23.314;2023-07-20T03:35:36;22.60;78.60
20911;DHT22;10615;42.702;23.314;2023-07-20T03:36:36;22.70;77.60
20911;DHT22;10615;42.702;23.314;2023-07-20T03:37:38;22.80;77.60
20911;DHT22;10615;42.702;23.314;2023-07-20T03:38:38;22.80;77.50
20911;DHT22;10615;42.702;23.314;2023-07-20T03:39:39;22.90;77.60
20911;DHT22;10615;42.702;23.314;2023-07-20T03:40:51;22.90;77.30
20911;DHT22;10615;42.702;23.314;2023-07-20T03:41:52;23.00;77.20
20911;DHT22;10615;42.702;23.314;2023-07-20T03:42:53;23.10;77.00
20911;DHT22;10615;42.702;23.314;2023-07-20T03:43:53;23.20;76.90
20911;DHT22;10615;42.702;23.314;2023-07-20T03:44:54;23.20;76.60
20911;DHT22;10615;42.702;23.314;2023-07-20T03:45:55;23.30;76.50
20911;DHT22;10615;42.702;23.314;2023-07-20T03:46:57;23.40;76.50
20911;DHT22;10615;42.702;23.314;2023-07-20T03:47:58;23.40;76.20
20911;DHT22;10615;42.702;23.314;2023-07-20T03:48:58;23.40;76.10
20911;DHT22;10615;42.702;23.314;2023-07-20T03:49:59;23.50;76.20
20911;DHT22;10615;42.702;23.314;2023-07-20T03:50:59;23.60;76.10
20911;DHT22;10615;42.702;23.314;2023-07-20T03:52:01;23.60;75.90
20911;DHT22;10615;42.702;23.314;2023-07-20T03:53:03;23.70;75.70
20911;DHT22;10615;42.702;23.314;2023-07-20T03:54:04;23.80;75.20
20911;DHT22;10615;42.702;23.314;2023-07-20T03:55:05;23.80;75.20
20911;DHT22;10615;42.702;23.314;2023-07-20T03:56:06;23.90;75.00
20911;DHT22;10615;42.702;23.314;2023-07-20T03:57:07;24.00;74.80
20911;DHT22;10615;42.702;23.314;2023-07-20T03:58:08;24.20;74.20
20911;DHT22;10615;42.702;23.314;2023-07-20T03:59:08;24.30;73.90
20911;DHT22;10615;42.702;23.314;2023-07-20T04:00:09;24.30;73.60
20911;DHT22;10615;42.702;23.314;2023-07-20T04:01:10;24.50;73.50
20911;DHT22;10615;42.702;23.314;2023-07-20T04:02:11;24.70;73.10
20911;DHT22;10615;42.702;23.314;2023-07-20T04:03:12;24.80;72.30
20911;DHT22;10615;42.702;23.314;2023-07-20T04:04:16;24.90;71.80
20911;DHT22;10615;42.702;23.314;2023-07-20T04:05:17;25.00;71.10
20911;DHT22;10615;42.702;23.314;2023-07-20T04:06:18;25.20;70.50
20911;DHT22;10615;42.702;23.314;2023-07-20T04:07:18;25.40;69.80
20911;DHT22;10615;42.702;23.314;2023-07-20T04:08:19;25.50;69.20
20911;DHT22;10615;42.702;23.314;2023-07-20T04:09:19;25.70;68.50
20911;DHT22;10615;42.702;23.314;2023-07-20T04:10:20;25.70;68.20
20911;DHT22;10615;42.702;23.314;2023-07-20T04:11:21;25.80;67.70
20911;DHT22;10615;42.702;23.314;2023-07-20T04:12:22;25.80;67.70
20911;DHT22;10615;42.702;23.314;2023-07-20T04:13:22;25.90;67.60
20911;DHT22;10615;42.702;23.314;2023-07-20T04:14:23;26.10;67.10
20911;DHT22;10615;42.702;23.314;2023-07-20T04:15:23;26.20;66.60
20911;DHT22;10615;42.702;23.314;2023-07-20T04:16:24;26.40;66.40
20911;DHT22;10615;42.702;23.314;2023-07-20T04:17:25;26.50;66.00
20911;DHT22;10615;42.702;23.314;2023-07-20T04:18:25;26.70;65.30
20911;DHT22;10615;42.702;23.314;2023-07-20T04:19:26;26.80;64.60
20911;DHT22;10615;42.702;23.314;2023-07-20T04:20:27;26.90;64.30
20911;DHT22;10615;42.702;23.314;2023-07-20T04:21:27;26.90;63.70
20911;DHT22;10615;42.702;23.314;2023-07-20T04:22:28;27.00;63.30
20911;DHT22;10615;42.702;23.314;2023-07-20T04:23:29;27.10;63.00
20911;DHT22;10615;42.702;23.314;2023-07-20T04:24:30;27.10;63.00
20911;DHT22;10615;42.702;23.314;2023-07-20T04:25:30;27.20;62.70
20911;DHT22;10615;42.702;23.314;2023-07-20T04:26:39;27.40;62.30
20911;DHT22;10615;42.702;23.314;2023-07-20T04:27:39;27.40;61.50
20911;DHT22;10615;42.702;23.314;2023-07-20T04:28:43;27.30;61.50
20911;DHT22;10615;42.702;23.314;2023-07-20T04:29:44;27.40;61.50
20911;DHT22;10615;42.702;23.314;2023-07-20T04:30:45;27.40;61.50
20911;DHT22;10615;42.702;23.314;2023-07-20T04:31:45;27.40;61.10
20911;DHT22;10615;42.702;23.314;2023-07-20T04:32:46;27.40;61.40
20911;DHT22;10615;42.702;23.314;2023-07-20T04:33:47;27.50;61.50
20911;DHT22;10615;42.702;23.314;2023-07-20T04:34:47;27.70;61.70
20911;DHT22;10615;42.702;23.314;2023-07-20T04:35:52;27.90;61.10
20911;DHT22;10615;42.702;23.314;2023-07-20T04:36:53;28.00;60.50
20911;DHT22;10615;42.702;23.314;2023-07-20T04:37:54;28.10;59.90
20911;DHT22;10615;42.702;23.314;2023-07-20T04:38:55;28.30;59.60
20911;DHT22;10615;42.702;23.314;2023-07-20T04:39:55;28.50;59.10
20911;DHT22;10615;42.702;23.314;2023-07-20T04:40:56;28.80;58.60
20911;DHT22;10615;42.702;23.314;2023-07-20T04:41:57;29.10;57.90
20911;DHT22;10615;42.702;23.314;2023-07-20T04:42:58;29.50;57.30
20911;DHT22;10615;42.702;23.314;2023-07-20T04:43:59;29.70;56.10
20911;DHT22;10615;42.702;23.314;2023-07-20T04:44:59;29.90;55.70
20911;DHT22;10615;42.702;23.314;2023-07-20T04:46:00;30.30;55.10
20911;DHT22;10615;42.702;23.314;2023-07-20T04:47:01;30.50;54.10
20911;DHT22;10615;42.702;23.314;2023-07-20T04:48:01;30.70;53.50
20911;DHT22;10615;42.702;23.314;2023-07-20T04:49:02;31.00;53.20
20911;DHT22;10615;42.702;23.314;2023-07-20T04:50:04;31.20;52.60
20911;DHT22;10615;42.702;23.314;2023-07-20T04:51:04;31.60;51.90
20911;DHT22;10615;42.702;23.314;2023-07-20T04:52:05;32.00;51.00
20911;DHT22;10615;42.702;23.314;2023-07-20T04:53:06;32.10;50.20
20911;DHT22;10615;42.702;23.314;2023-07-20T04:54:07;32.30;50.00
20911;DHT22;10615;42.702;23.314;2023-07-20T04:55:08;32.60;49.50
20911;DHT22;10615;42.702;23.314;2023-07-20T04:56:09;32.80;49.00
20911;DHT22;10615;42.702;23.314;2023-07-20T04:57:11;33.20;48.40
20911;DHT22;10615;42.702;23.314;2023-07-20T04:58:12;33.50;47.60
20911;DHT22;10615;42.702;23.314;2023-07-20T04:59:12;33.70;46.90
20911;DHT22;10615;42.702;23.314;2023-07-20T05:00:13;33.90;46.30
20911;DHT22;10615;42.702;23.314;2023-07-20T05:01:14;34.20;45.90
20911;DHT22;10615;42.702;23.314;2023-07-20T05:02:15;34.30;45.30
20911;DHT22;10615;42.702;23.314;2023-07-20T05:03:16;34.60;45.00
20911;DHT22;10615;42.702;23.314;2023-07-20T05:04:16;34.90;44.20
20911;DHT22;10615;42.702;23.314;2023-07-20T05:05:17;35.10;43.80
20911;DHT22;10615;42.702;23.314;2023-07-20T05:06:18;35.10;43.50
20911;DHT22;10615;42.702;23.314;2023-07-20T05:07:19;35.20;43.20
20911;DHT22;10615;42.702;23.314;2023-07-20T05:08:19;35.30;43.10
20911;DHT22;10615;42.702;23.314;2023-07-20T05:09:22;35.40;43.00
20911;DHT22;10615;42.702;23.314;2023-07-20T05:10:23;35.40;42.80
20911;DHT22;10615;42.702;23.314;2023-07-20T05:11:24;35.40;42.70
20911;DHT22;10615;42.702;23.314;2023-07-20T05:12:25;35.50;42.70
20911;DHT22;10615;42.702;23.314;2023-07-20T05:13:26;35.70;42.60
20911;DHT22;10615;42.702;23.314;2023-07-20T05:14:27;36.00;42.20
20911;DHT22;10615;42.702;23.314;2023-07-20T05:15:27;36.60;41.90
20911;DHT22;10615;42.702;23.314;2023-07-20T05:16:28;37.30;41.30
20911;DHT22;10615;42.702;23.314;2023-07-20T05:17:29;37.90;40.40
20911;DHT22;10615;42.702;23.314;2023-07-20T05:18:30;38.50;39.60
20911;DHT22;10615;42.702;23.314;2023-07-20T05:19:30;39.10;38.80
20911;DHT22;10615;42.702;23.314;2023-07-20T05:21:33;41.30;59.10
20911;DHT22;10615;42.702;23.314;2023-07-20T05:23:35;41.50;34.60
20911;DHT22;10615;42.702;23.314;2023-07-20T05:24:36;41.90;34.30
20911;DHT22;10615;42.702;23.314;2023-07-20T05:25:36;42.30;33.80
20911;DHT22;10615;42.702;23.314;2023-07-20T05:27:39;43.10;32.20
20911;DHT22;10615;42.702;23.314;2023-07-20T05:28:39;43.40;32.20
20911;DHT22;10615;42.702;23.314;2023-07-20T05:29:47;43.70;31.80
20911;DHT22;10615;42.702;23.314;2023-07-20T05:30:47;43.80;31.40
20911;DHT22;10615;42.702;23.314;2023-07-20T05:31:48;44.30;31.10
20911;DHT22;10615;42.702;23.314;2023-07-20T05:32:49;44.80;30.70
20911;DHT22;10615;42.702;23.314;2023-07-20T05:33:52;45.00;30.00
20911;DHT22;10615;42.702;23.314;2023-07-20T05:34:53;45.10;29.70
20911;DHT22;10615;42.702;23.314;2023-07-20T05:35:54;45.20;29.50
20911;DHT22;10615;42.702;23.314;2023-07-20T05:37:10;45.50;29.40
20911;DHT22;10615;42.702;23.314;2023-07-20T05:38:11;45.70;29.00
20911;DHT22;10615;42.702;23.314;2023-07-20T05:39:11;45.90;28.00
20911;DHT22;10615;42.702;23.314;2023-07-20T05:40:13;45.80;28.40
20911;DHT22;10615;42.702;23.314;2023-07-20T05:41:15;45.70;28.30
20911;DHT22;10615;42.702;23.314;2023-07-20T05:42:15;46.00;28.40
20911;DHT22;10615;42.702;23.314;2023-07-20T05:43:16;46.30;28.40
20911;DHT22;10615;42.702;23.314;2023-07-20T05:44:17;46.60;28.20
20911;DHT22;10615;42.702;23.314;2023-07-20T05:45:18;46.90;27.10
20911;DHT22;10615;42.702;23.314;2023-07-20T05:46:18;46.80;27.50
20911;DHT22;10615;42.702;23.314;2023-07-20T05:47:19;46.80;27.30
20911;DHT22;10615;42.702;23.314;2023-07-20T05:48:20;46.90;27.30
20911;DHT22;10615;42.702;23.314;2023-07-20T05:49:20;46.90;27.20
20911;DHT22;10615;42.702;23.314;2023-07-20T05:50:21;47.00;27.20
20911;DHT22;10615;42.702;23.314;2023-07-20T05:51:22;47.20;27.10
20911;DHT22;10615;42.702;23.314;2023-07-20T05:52:22;47.30;26.90
20911;DHT22;10615;42.702;23.314;2023-07-20T05:53:23;47.30;26.80
20911;DHT22;10615;42.702;23.314;2023-07-20T05:54:24;47.40;26.70
20911;DHT22;10615;42.702;23.314;2023-07-20T05:55:26;47.60;26.70
20911;DHT22;10615;42.702;23.314;2023-07-20T05:56:26;48.00;26.60
20911;DHT22;10615;42.702;23.314;2023-07-20T05:57:27;48.30;26.40
20911;DHT22;10615;42.702;23.314;2023-07-20T05:58:28;48.60;26.20
20911;DHT22;10615;42.702;23.314;2023-07-20T05:59:28;49.00;25.90
20911;DHT22;10615;42.702;23.314;2023-07-20T06:00:32;49.30;25.70
20911;DHT22;10615;42.702;23.314;2023-07-20T06:01:33;49.40;25.40
20911;DHT22;10615;42.702;23.314;2023-07-20T06:02:33;49.30;25.20
20911;DHT22;10615;42.702;23.314;2023-07-20T06:03:34;49.10;25.10
20911;DHT22;10615;42.702;23.314;2023-07-20T06:04:35;49.00;25.10
20911;DHT22;10615;42.702;23.314;2023-07-20T06:05:35;48.80;25.00
20911;DHT22;10615;42.702;23.314;2023-07-20T06:06:36;48.60;25.10
20911;DHT22;10615;42.702;23.314;2023-07-20T06:07:37;48.80;25.40
20911;DHT22;10615;42.702;23.314;2023-07-20T06:08:38;49.00;25.20
20911;DHT22;10615;42.702;23.314;2023-07-20T06:09:39;49.10;25.00
20911;DHT22;10615;42.702;23.314;2023-07-20T06:10:40;49.10;24.90
20911;DHT22;10615;42.702;23.314;2023-07-20T06:11:41;49.10;24.80
20911;DHT22;10615;42.702;23.314;2023-07-20T06:12:42;49.00;24.70
20911;DHT22;10615;42.702;23.314;2023-07-20T06:13:42;49.40;24.80
20911;DHT22;10615;42.702;23.314;2023-07-20T06:14:44;49.70;24.60
20911;DHT22;10615;42.702;23.314;2023-07-20T06:15:44;49.80;24.40
20911;DHT22;10615;42.702;23.314;2023-07-20T06:16:45;50.10;24.30
20911;DHT22;10615;42.702;23.314;2023-07-20T06:17:46;50.70;24.30
20911;DHT22;10615;42.702;23.314;2023-07-20T06:18:46;51.30;24.00
20911;DHT22;10615;42.702;23.314;2023-07-20T06:19:47;51.50;23.60
20911;DHT22;10615;42.702;23.314;2023-07-20T06:20:51;51.60;23.40
20911;DHT22;10615;42.702;23.314;2023-07-20T06:21:52;51.80;23.10
20911;DHT22;10615;42.702;23.314;2023-07-20T06:22:53;52.00;23.10
20911;DHT22;10615;42.702;23.314;2023-07-20T06:23:54;52.50;23.10
20911;DHT22;10615;42.702;23.314;2023-07-20T06:24:55;52.70;22.80
20911;DHT22;10615;42.702;23.314;2023-07-20T06:25:55;52.90;22.60
20911;DHT22;10615;42.702;23.314;2023-07-20T06:26:56;53.10;22.40
20911;DHT22;10615;42.702;23.314;2023-07-20T06:27:57;53.30;22.00
20911;DHT22;10615;42.702;23.314;2023-07-20T06:28:58;53.30;22.00
20911;DHT22;10615;42.702;23.314;2023-07-20T06:29:58;53.40;21.80
20911;DHT22;10615;42.702;23.314;2023-07-20T06:31:03;53.40;21.70
20911;DHT22;10615;42.702;23.314;2023-07-20T06:32:05;53.60;21.70
20911;DHT22;10615;42.702;23.314;2023-07-20T06:33:06;53.80;21.70
20911;DHT22;10615;42.702;23.314;2023-07-20T06:34:07;53.90;21.50
20911;DHT22;10615;42.702;23.314;2023-07-20T06:35:08;54.00;21.50